Time,TemperatureF,DewpointF,PressureIn,WindDirection,WindDirectionDegrees,WindSpeedMPH,WindSpeedGustMPH,Humidity,HourlyPrecipIn,Conditions,Clouds,dailyrainin,SolarRadiationWatts/m^2,SoftwareType,DateUTC
2013-07-21 00:01:00,52.0,49.0,-100.00,NE,40,1.0,2.0,90,0.00,,,0.00,0.000000,,2013-07-21 07:01:00,
2013-07-21 00:32:00,50.0,48.0,-100.00,NE,54,1.0,2.0,94,-99.99,,,-99.99,0.000000,,2013-07-21 07:32:00,
2013-07-21 00:53:00,50.0,48.0,-100.00,NE,54,1.0,2.0,94,-99.99,,,-99.99,0.000000,,2013-07-21 07:53:00,
2013-07-21 01:01:00,50.0,48.0,-100.00,NE,54,1.0,2.0,94,-99.99,,,-99.99,0.000000,,2013-07-21 08:01:00,
2013-07-21 01:43:00,49.0,48.0,-100.00,ENE,61,1.0,5.0,96,0.00,,,0.00,0.000000,,2013-07-21 08:43:00,
2013-07-21 01:52:00,49.0,48.0,-100.00,ENE,61,1.0,5.0,96,0.00,,,0.00,0.000000,,2013-07-21 08:52:00,
2013-07-21 02:02:00,49.0,48.0,-100.00,ENE,61,1.0,5.0,96,0.00,,,0.00,0.000000,,2013-07-21 09:02:00,
2013-07-21 02:32:00,49.0,48.0,-100.00,East,90,1.0,3.0,96,0.00,,,0.00,0.000000,,2013-07-21 09:32:00,
2013-07-21 02:42:00,49.0,48.0,-100.00,East,90,1.0,3.0,96,0.00,,,0.00,0.000000,,2013-07-21 09:42:00,
2013-07-21 02:52:00,49.0,48.0,-100.00,East,90,1.0,3.0,96,0.00,,,0.00,0.000000,,2013-07-21 09:52:00,
2013-07-21 03:01:00,49.0,48.0,-100.00,East,90,1.0,3.0,96,0.00,,,0.00,0.000000,,2013-07-21 10:01:00,
2013-07-21 03:43:00,47.0,46.0,-100.00,ESE,112,1.0,3.0,97,0.00,,,0.00,0.000000,,2013-07-21 10:43:00,
2013-07-21 03:52:00,47.0,46.0,-100.00,ESE,112,1.0,3.0,97,0.00,,,0.00,0.000000,,2013-07-21 10:52:00,
2013-07-21 04:02:00,47.0,46.0,-100.00,ESE,112,1.0,3.0,97,0.00,,,0.00,0.000000,,2013-07-21 11:02:00,
2013-07-21 04:33:00,51.0,50.0,-100.00,ENE,71,0.0,1.0,97,0.00,,,0.00,0.000000,,2013-07-21 11:33:00,
2013-07-21 04:52:00,51.0,50.0,-100.00,ENE,71,0.0,1.0,97,0.00,,,0.00,0.000000,,2013-07-21 11:52:00,
2013-07-21 05:01:00,51.0,50.0,-100.00,ENE,71,0.0,1.0,97,0.00,,,0.00,0.000000,,2013-07-21 12:01:00,
2013-07-21 05:32:00,52.0,51.0,-100.00,NNE,28,1.0,1.0,98,0.00,,,0.00,0.000000,,2013-07-21 12:32:00,
2013-07-21 05:43:00,52.0,51.0,-100.00,NNE,28,1.0,1.0,98,0.00,,,0.00,0.000000,,2013-07-21 12:43:00,
2013-07-21 05:53:00,52.0,51.0,-100.00,NNE,28,1.0,1.0,98,0.00,,,0.00,0.000000,,2013-07-21 12:53:00,
2013-07-21 06:01:00,52.0,51.0,-100.00,NNE,28,1.0,1.0,98,0.00,,,0.00,0.000000,,2013-07-21 13:01:00,
2013-07-21 06:53:00,53.0,52.0,-100.00,ENE,71,0.0,2.0,98,0.00,,,0.00,3.000000,,2013-07-21 13:53:00,
2013-07-21 07:01:00,53.0,52.0,-100.00,ENE,71,0.0,2.0,98,0.00,,,0.00,3.000000,,2013-07-21 14:01:00,
2013-07-21 07:43:00,54.0,51.0,-100.00,NE,55,1.0,4.0,90,0.00,,,0.00,35.000000,,2013-07-21 14:43:00,
2013-07-21 07:53:00,54.0,51.0,-100.00,NE,55,1.0,4.0,90,0.00,,,0.00,35.000000,,2013-07-21 14:53:00,
2013-07-21 08:02:00,54.0,51.0,-100.00,NE,55,1.0,4.0,90,0.00,,,0.00,35.000000,,2013-07-21 15:02:00,
2013-07-21 08:43:00,59.0,52.0,-100.00,NW,319,1.0,3.0,78,0.00,,,0.00,111.000000,,2013-07-21 15:43:00,
2013-07-21 08:53:00,59.0,52.0,-100.00,NW,319,1.0,3.0,78,0.00,,,0.00,111.000000,,2013-07-21 15:53:00,
2013-07-21 09:01:00,59.0,52.0,-100.00,NW,319,1.0,3.0,78,0.00,,,0.00,111.000000,,2013-07-21 16:01:00,
2013-07-21 09:32:00,66.0,53.0,-100.00,SSE,160,1.0,5.0,63,0.00,,,0.00,359.000000,,2013-07-21 16:32:00,
2013-07-21 09:43:00,66.0,53.0,-100.00,SSE,160,1.0,5.0,63,0.00,,,0.00,359.000000,,2013-07-21 16:43:00,
2013-07-21 09:52:00,66.0,53.0,-100.00,SSE,160,1.0,5.0,63,0.00,,,0.00,359.000000,,2013-07-21 16:52:00,
2013-07-21 10:02:00,66.0,53.0,-100.00,SSE,160,1.0,5.0,63,0.00,,,0.00,359.000000,,2013-07-21 17:02:00,
2013-07-21 10:33:00,72.0,52.0,-100.00,South,182,2.0,7.0,49,0.00,,,0.00,833.000000,,2013-07-21 17:33:00,
2013-07-21 10:43:00,72.0,52.0,-100.00,South,182,2.0,7.0,49,0.00,,,0.00,833.000000,,2013-07-21 17:43:00,
2013-07-21 10:53:00,72.0,52.0,-100.00,South,182,2.0,7.0,49,0.00,,,0.00,833.000000,,2013-07-21 17:53:00,
2013-07-21 11:01:00,72.0,52.0,-100.00,South,182,2.0,7.0,49,0.00,,,0.00,833.000000,,2013-07-21 18:01:00,
2013-07-21 11:32:00,77.0,54.0,-100.00,ENE,60,3.0,9.0,45,0.00,,,0.00,1023.000000,,2013-07-21 18:32:00,
2013-07-21 11:43:00,77.0,54.0,-100.00,ENE,60,3.0,9.0,45,0.00,,,0.00,1023.000000,,2013-07-21 18:43:00,
2013-07-21 11:52:00,77.0,54.0,-100.00,ENE,60,3.0,9.0,45,0.00,,,0.00,1023.000000,,2013-07-21 18:52:00,
2013-07-21 12:01:00,77.0,54.0,-100.00,ENE,60,3.0,9.0,45,0.00,,,0.00,1023.000000,,2013-07-21 19:01:00,
2013-07-21 12:32:00,78.0,52.0,-100.00,SSW,194,3.0,13.0,41,0.00,,,0.00,1155.000000,,2013-07-21 19:32:00,
2013-07-21 12:42:00,78.0,52.0,-100.00,SSW,194,3.0,13.0,41,0.00,,,0.00,1155.000000,,2013-07-21 19:42:00,
2013-07-21 12:52:00,78.0,52.0,-100.00,SSW,194,3.0,13.0,41,0.00,,,0.00,1155.000000,,2013-07-21 19:52:00,
2013-07-21 13:01:00,78.0,52.0,-100.00,SSW,194,3.0,13.0,41,0.00,,,0.00,1155.000000,,2013-07-21 20:01:00,
2013-07-21 13:32:00,81.0,52.0,-100.00,SSE,149,3.0,13.0,37,0.00,,,0.00,1228.000000,,2013-07-21 20:32:00,
2013-07-21 13:43:00,81.0,52.0,-100.00,SSE,149,3.0,13.0,37,0.00,,,0.00,1228.000000,,2013-07-21 20:43:00,
2013-07-21 13:52:00,81.0,52.0,-100.00,SSE,149,3.0,13.0,37,0.00,,,0.00,1228.000000,,2013-07-21 20:52:00,
2013-07-21 14:01:00,81.0,52.0,-100.00,SSE,149,3.0,13.0,37,0.00,,,0.00,1228.000000,,2013-07-21 21:01:00,
2013-07-21 14:32:00,82.0,51.0,-100.00,West,277,4.0,17.0,34,0.00,,,0.00,1230.000000,,2013-07-21 21:32:00,
2013-07-21 14:43:00,82.0,51.0,-100.00,West,277,4.0,17.0,34,0.00,,,0.00,1230.000000,,2013-07-21 21:43:00,
2013-07-21 14:52:00,82.0,51.0,-100.00,West,277,4.0,17.0,34,0.00,,,0.00,1230.000000,,2013-07-21 21:52:00,
2013-07-21 15:01:00,82.0,51.0,-100.00,West,277,4.0,17.0,34,0.00,,,0.00,1230.000000,,2013-07-21 22:01:00,
2013-07-21 15:43:00,86.0,53.0,-100.00,ENE,74,4.0,14.0,32,0.00,,,0.00,1169.000000,,2013-07-21 22:43:00,
2013-07-21 15:52:00,86.0,53.0,-100.00,ENE,74,4.0,14.0,32,0.00,,,0.00,1169.000000,,2013-07-21 22:52:00,
2013-07-21 16:01:00,86.0,53.0,-100.00,ENE,74,4.0,14.0,32,0.00,,,0.00,1169.000000,,2013-07-21 23:01:00,
2013-07-21 16:43:00,86.0,53.0,-100.00,SE,133,3.0,15.0,32,0.00,,,0.00,1044.000000,,2013-07-21 23:43:00,
2013-07-21 16:53:00,86.0,53.0,-100.00,SE,133,3.0,15.0,32,0.00,,,0.00,1044.000000,,2013-07-21 23:53:00,
2013-07-21 17:01:00,86.0,53.0,-100.00,SE,133,3.0,15.0,32,0.00,,,0.00,1044.000000,,2013-07-22 00:01:00,
2013-07-21 17:32:00,86.0,54.0,-100.00,NNE,30,3.0,14.0,33,-99.99,,,0.00,864.000000,,2013-07-22 00:32:00,
2013-07-21 17:42:00,86.0,54.0,-100.00,NNE,30,3.0,14.0,33,-99.99,,,0.00,864.000000,,2013-07-22 00:42:00,
2013-07-21 17:53:00,86.0,54.0,-100.00,NNE,30,3.0,14.0,33,-99.99,,,0.00,864.000000,,2013-07-22 00:53:00,
2013-07-21 18:42:00,83.0,54.0,-100.00,WSW,239,3.0,12.0,37,-99.99,,,0.00,646.000000,,2013-07-22 01:42:00,
2013-07-21 18:52:00,83.0,54.0,-100.00,WSW,239,3.0,12.0,37,-99.99,,,0.00,646.000000,,2013-07-22 01:52:00,
2013-07-21 19:01:00,83.0,54.0,-100.00,WSW,239,3.0,12.0,37,-99.99,,,0.00,646.000000,,2013-07-22 02:01:00,
2013-07-21 19:32:00,73.0,52.0,-100.00,East,89,3.0,13.0,48,-99.99,,,0.00,301.000000,,2013-07-22 02:32:00,
2013-07-21 19:43:00,73.0,52.0,-100.00,East,89,3.0,13.0,48,-99.99,,,0.00,301.000000,,2013-07-22 02:43:00,
2013-07-21 19:52:00,73.0,52.0,-100.00,East,89,3.0,13.0,48,-99.99,,,0.00,301.000000,,2013-07-22 02:52:00,
2013-07-21 20:01:00,73.0,52.0,-100.00,East,89,3.0,13.0,48,-99.99,,,0.00,301.000000,,2013-07-22 03:01:00,
2013-07-21 20:33:00,68.0,55.0,-100.00,NNE,20,1.0,10.0,63,0.00,,,0.00,81.000000,,2013-07-22 03:33:00,
2013-07-21 20:43:00,68.0,55.0,-100.00,NNE,20,1.0,10.0,63,0.00,,,0.00,81.000000,,2013-07-22 03:43:00,
2013-07-21 20:53:00,68.0,55.0,-100.00,NNE,20,1.0,10.0,63,0.00,,,0.00,81.000000,,2013-07-22 03:53:00,
2013-07-21 21:01:00,68.0,55.0,-100.00,NNE,20,1.0,10.0,63,0.00,,,0.00,81.000000,,2013-07-22 04:01:00,
2013-07-21 22:01:00,61.0,54.0,-100.00,NNW,329,2.0,7.0,77,0.00,,,0.00,6.000000,,2013-07-22 05:01:00,
2013-07-21 22:52:00,57.0,53.0,-100.00,ENE,63,1.0,5.0,88,0.00,,,0.00,0.000000,,2013-07-22 05:52:00,
2013-07-21 23:01:00,57.0,53.0,-100.00,ENE,63,1.0,5.0,88,0.00,,,0.00,0.000000,,2013-07-22 06:01:00,